createdAt,value
2018-11-22T12:16:49.765Z,146.87
2018-11-22T12:19:23.258Z,147.20
2018-11-22T12:22:01.973Z,135.05
2018-11-22T12:24:34.177Z,139.65
2018-11-22T12:27:09.518Z,132.45
2018-11-22T12:29:42.179Z,137.35
2018-11-22T12:32:17.464Z,131.37
2018-11-22T12:34:54.909Z,126.50
2018-11-22T12:37:32.253Z,127.27
2018-11-22T12:40:06.463Z,131.63
2018-11-22T12:42:39.842Z,119.50
2018-11-22T12:45:12.357Z,118.08
2018-11-22T12:47:46.711Z,122.62
2018-11-22T12:50:20.616Z,120.30
2018-11-22T12:52:52.891Z,118.67
2018-11-22T12:55:26.175Z,124.50
2018-11-22T12:57:58.318Z,117.57
2018-11-22T13:00:31.882Z,117.40
2018-11-22T13:07:34.617Z,112.80
2018-11-22T13:10:06.865Z,112.35
2018-11-22T13:12:39.079Z,98.17
2018-11-22T13:15:12.859Z,107.87
2018-11-22T13:17:46.894Z,101.40
2018-11-22T13:20:21.092Z,98.70
2018-11-22T13:22:53.754Z,98.85
2018-11-22T13:25:28.001Z,95.22
2018-11-22T13:28:02.091Z,98.17
2018-11-22T13:30:35.197Z,100.85
2018-11-22T13:33:08.634Z,92.27
2018-11-22T13:35:40.278Z,97.27
2018-11-22T13:38:13.266Z,95.62
2018-11-22T13:40:45.625Z,90.22
2018-11-22T13:43:16.410Z,91.28
2018-11-22T13:45:48.485Z,91.50
2018-11-22T13:48:20.289Z,91.08
2018-11-22T13:50:52.119Z,95.10
2018-11-22T13:53:26.851Z,85.45
2018-11-22T13:55:57.980Z,85.32
2018-11-22T13:58:29.268Z,81.85
2018-11-22T14:01:03.200Z,87.00
2018-11-22T14:03:36.773Z,82.00
2018-11-22T14:06:10.248Z,83.45
2018-11-22T14:08:46.128Z,82.30
2018-11-22T14:11:19.791Z,85.60
2018-11-22T14:13:52.893Z,80.87
2018-11-22T14:16:27.139Z,76.92
2018-11-22T14:18:59.541Z,73.90
2018-11-22T14:21:32.528Z,80.42
2018-11-22T14:24:06.965Z,175.25
2018-11-22T14:26:40.572Z,156.28
2018-11-22T14:29:14.285Z,157.97
2018-11-22T14:31:46.351Z,156.67
2018-11-22T14:34:20.455Z,148.22
2018-11-22T14:36:55.748Z,152.85
2018-11-22T14:39:26.555Z,151.72
2018-11-22T14:42:02.186Z,161.73
2018-11-22T14:44:35.079Z,168.25
2018-11-22T14:47:09.732Z,172.62
2018-11-22T14:49:41.844Z,184.78
2018-11-22T14:52:15.027Z,194.10
2018-11-22T14:54:47.101Z,203.90
2018-11-22T14:57:18.833Z,205.35
2018-11-22T14:59:52.058Z,202.43
2018-11-22T15:02:24.668Z,207.72
2018-11-22T15:04:56.997Z,207.57
2018-11-22T15:07:29.484Z,213.55
2018-11-22T15:10:02.350Z,215.32
2018-11-22T15:12:38.673Z,215.10
2018-11-22T15:15:13.459Z,202.87
2018-11-22T15:17:44.260Z,215.65
2018-11-22T15:20:17.367Z,203.15
2018-11-22T15:22:50.883Z,207.25
2018-11-22T15:25:24.215Z,192.70
2018-11-22T15:27:57.450Z,194.43
2018-11-22T15:30:30.465Z,213.50
2018-11-22T15:33:03.705Z,198.02
2018-11-22T15:35:38.257Z,191.65
2018-11-22T15:38:12.048Z,202.97
2018-11-22T15:40:44.232Z,178.57
2018-11-22T15:43:17.217Z,190.20
2018-11-22T15:45:49.970Z,184.37
2018-11-22T15:48:21.715Z,178.42
2018-11-22T15:50:56.470Z,175.72
2018-11-22T15:53:28.306Z,179.12
2018-11-22T15:56:01.139Z,175.03
2018-11-22T15:58:36.045Z,168.93
2018-11-22T16:01:07.643Z,158.40
2018-11-22T16:03:40.491Z,162.10
2018-11-22T16:06:13.033Z,157.88
2018-11-22T16:08:43.886Z,166.85
2018-11-22T16:11:15.425Z,151.18
2018-11-22T16:13:48.111Z,152.00
2018-11-22T16:16:22.035Z,151.07
2018-11-22T16:18:57.477Z,151.60
2018-11-22T16:21:29.387Z,143.85
2018-11-22T16:24:00.389Z,140.22
2018-11-22T16:26:31.137Z,153.12
2018-11-22T16:29:03.667Z,141.50
2018-11-22T16:31:37.115Z,133.67
2018-11-22T16:34:09.035Z,139.15
2018-11-22T16:36:41.853Z,134.25
2018-11-22T16:39:14.154Z,143.13
2018-11-22T16:41:46.077Z,130.50
2018-11-22T16:44:17.316Z,137.62
2018-11-22T16:46:49.817Z,135.20
2018-11-22T16:49:21.922Z,125.33
2018-11-22T16:51:55.407Z,127.05
2018-11-22T16:54:27.279Z,120.33
2018-11-22T16:56:59.848Z,115.35
2018-11-22T16:59:31.857Z,117.67
2018-11-22T17:02:05.014Z,121.13
2018-11-22T17:04:38.708Z,122.55
2018-11-22T17:07:13.101Z,109.05
2018-11-22T17:09:46.527Z,105.60
2018-11-22T17:12:20.513Z,113.72
2018-11-22T17:14:52.553Z,112.17
2018-11-22T17:17:24.137Z,107.85
2018-11-22T17:20:00.846Z,103.87
2018-11-22T17:22:36.213Z,106.15
2018-11-22T17:25:10.824Z,103.17
2018-11-22T17:27:44.540Z,102.22
2018-11-22T17:30:18.778Z,102.15
2018-11-22T17:32:53.060Z,104.58
2018-11-22T17:35:27.336Z,93.87
2018-11-22T17:38:00.916Z,98.07
2018-11-22T17:40:34.560Z,95.22
2018-11-22T17:43:06.820Z,97.57
2018-11-22T17:45:44.773Z,93.87
2018-11-22T17:48:20.934Z,90.70
2018-11-22T17:50:54.680Z,91.92
2018-11-22T17:53:29.062Z,87.10
2018-11-22T17:56:01.768Z,88.05
2018-11-22T17:58:35.321Z,94.83
2018-11-22T18:01:06.780Z,86.82
2018-11-22T18:03:39.269Z,83.75
2018-11-22T18:06:13.037Z,84.50
2018-11-22T18:08:43.855Z,84.00
2018-11-22T18:11:17.527Z,84.75
2018-11-22T18:13:50.724Z,79.00
2018-11-22T18:16:22.535Z,75.05
2018-11-22T18:18:56.946Z,80.45
2018-11-22T18:21:28.399Z,75.85
2018-11-22T18:24:01.454Z,79.03
2018-11-22T18:26:36.577Z,77.35
2018-11-22T18:29:09.260Z,80.65
2018-11-22T18:31:41.227Z,74.55
2018-11-22T18:34:14.365Z,74.05
2018-11-22T18:36:48.223Z,72.27
2018-11-22T18:39:21.903Z,71.47
2018-11-22T18:41:53.601Z,71.40
2018-11-22T18:44:25.444Z,69.85
2018-11-22T18:46:58.866Z,71.87
2018-11-22T18:49:31.236Z,70.32
2018-11-22T18:52:04.260Z,72.15
2018-11-22T18:54:36.426Z,69.15
2018-11-22T18:57:13.092Z,70.47
2018-11-22T18:59:48.462Z,70.60
2018-11-22T19:02:22.155Z,64.60
2018-11-22T19:04:54.523Z,68.33
2018-11-22T19:07:25.974Z,67.35
2018-11-22T19:09:59.477Z,67.03
2018-11-22T19:12:31.137Z,68.02
2018-11-22T19:15:06.194Z,64.80
2018-11-22T19:17:40.819Z,68.12
2018-11-22T19:20:21.869Z,68.12
2018-11-22T19:22:54.155Z,64.45
2018-11-22T19:25:26.619Z,67.37
2018-11-22T19:28:02.319Z,64.60
2018-11-22T19:30:40.617Z,60.80
2018-11-22T19:33:14.687Z,305.02
2018-11-22T19:35:48.168Z,87.95
2018-11-22T19:38:24.157Z,70.00
2018-11-22T19:40:59.398Z,69.27
2018-11-22T19:43:33.110Z,70.37
2018-11-22T19:46:06.976Z,73.55
2018-11-22T19:48:40.874Z,68.22
2018-11-22T19:51:14.246Z,67.78
2018-11-22T19:53:47.690Z,72.85
2018-11-22T19:56:21.481Z,66.35
2018-11-22T19:58:53.814Z,67.42
2018-11-22T20:01:26.422Z,65.72
2018-11-22T20:03:58.610Z,71.75
2018-11-22T20:06:31.517Z,64.22
2018-11-22T20:09:02.816Z,63.73
2018-11-22T20:11:34.191Z,62.53
2018-11-22T20:14:06.358Z,64.32
2018-11-22T20:16:39.780Z,64.35
2018-11-22T20:19:11.961Z,59.15
2018-11-22T20:21:45.969Z,57.03
2018-11-22T20:24:21.418Z,63.78
2018-11-22T20:26:52.975Z,55.00
2018-11-22T20:29:28.561Z,59.42
2018-11-22T20:32:00.276Z,56.28
2018-11-22T20:34:34.099Z,64.12
2018-11-22T20:37:08.577Z,57.35
2018-11-22T20:39:40.216Z,53.68
2018-11-22T20:42:11.318Z,55.00
2018-11-22T20:44:44.415Z,53.25
2018-11-22T20:47:18.760Z,50.40
2018-11-22T20:49:52.875Z,58.68
2018-11-22T20:52:25.327Z,61.98
2018-11-22T20:54:58.545Z,59.80
2018-11-22T20:57:31.759Z,64.30
2018-11-22T21:00:04.778Z,66.62
2018-11-22T21:02:38.085Z,63.13
2018-11-22T21:05:10.668Z,65.67
2018-11-22T21:07:42.251Z,66.65
2018-11-22T21:10:15.617Z,66.67
2018-11-22T21:12:48.479Z,57.90
2018-11-22T21:15:22.215Z,55.78
2018-11-22T21:17:56.137Z,56.58
2018-11-22T21:20:30.940Z,56.08
2018-11-22T21:23:04.841Z,59.58
2018-11-22T21:25:36.937Z,55.48
2018-11-22T21:28:13.499Z,49.77
2018-11-22T21:30:45.931Z,54.98
2018-11-22T21:33:18.880Z,54.67
2018-11-22T21:35:51.241Z,49.65
2018-11-22T21:38:26.118Z,62.75
2018-11-22T21:40:58.696Z,61.75
2018-11-22T21:43:32.060Z,61.02
2018-11-22T21:46:03.083Z,63.35
2018-11-22T21:48:35.777Z,62.93
2018-11-22T21:51:08.564Z,63.02
2018-11-22T21:53:45.564Z,59.45
2018-11-22T21:56:19.454Z,59.53
2018-11-22T21:58:53.401Z,62.13
2018-11-22T22:01:26.136Z,60.80
2018-11-22T22:03:58.033Z,56.85
2018-11-22T22:06:29.981Z,57.58
2018-11-22T22:09:03.482Z,56.30
2018-11-22T22:11:36.891Z,54.45
2018-11-22T22:14:09.727Z,49.98
2018-11-22T22:16:43.062Z,52.75
2018-11-22T22:19:18.191Z,60.58
2018-11-22T22:21:50.056Z,56.68
2018-11-22T22:24:22.625Z,54.83
2018-11-22T22:26:54.426Z,57.90
2018-11-22T22:29:25.945Z,56.65
2018-11-22T22:31:58.532Z,51.80
2018-11-22T22:34:30.891Z,54.45
2018-11-22T22:37:03.559Z,53.63
2018-11-22T22:39:35.025Z,48.68
2018-11-22T22:42:08.476Z,50.43
2018-11-22T22:44:41.540Z,52.67
2018-11-22T22:47:14.501Z,53.33
2018-11-22T22:49:49.727Z,52.80
2018-11-22T22:52:23.568Z,53.80
2018-11-22T22:54:55.282Z,53.13
2018-11-22T22:57:26.539Z,50.65
2018-11-22T23:00:03.475Z,50.85
2018-11-22T23:02:38.390Z,47.93
2018-11-22T23:05:10.715Z,45.98
2018-11-22T23:07:44.192Z,44.00
2018-11-22T23:10:16.003Z,50.92
2018-11-22T23:12:48.995Z,48.08
2018-11-22T23:15:22.599Z,49.05
2018-11-22T23:17:55.798Z,46.02
2018-11-22T23:20:30.637Z,46.02
2018-11-22T23:23:02.066Z,46.70
2018-11-22T23:25:34.749Z,46.88
2018-11-22T23:28:07.269Z,46.58
2018-11-22T23:30:39.643Z,44.77
2018-11-22T23:33:12.109Z,44.35
2018-11-22T23:35:44.385Z,45.33
2018-11-22T23:38:14.875Z,44.40
2018-11-22T23:40:47.492Z,45.45
2018-11-22T23:43:22.049Z,45.23
2018-11-22T23:45:55.003Z,47.78
2018-11-22T23:48:31.545Z,43.50
2018-11-22T23:51:03.578Z,44.85
2018-11-22T23:53:36.338Z,46.13
2018-11-22T23:56:08.672Z,42.33
2018-11-22T23:58:40.178Z,45.17
